sensor_id;sensor_type;location;lat;lon;timestamp;P1;durP1;ratioP1;P2;durP2;ratioP2
35847;SDS011;22332;51.954;20.118;2023-05-20T00:02:23;16.60;;;12.70;;
35847;SDS011;22332;51.954;20.118;2023-05-20T00:05:29;16.90;;;12.40;;
35847;SDS011;22332;51.954;20.118;2023-05-20T00:08:34;14.50;;;10.40;;
35847;SDS011;22332;51.954;20.118;2023-05-20T00:11:39;16.70;;;12.00;;
35847;SDS011;22332;51.954;20.118;2023-05-20T00:14:45;17.20;;;12.50;;
35847;SDS011;22332;51.954;20.118;2023-05-20T00:17:51;16.70;;;12.90;;
35847;SDS011;22332;51.954;20.118;2023-05-20T00:20:57;16.90;;;11.90;;
35847;SDS011;22332;51.954;20.118;2023-05-20T00:24:03;14.10;;;10.70;;
35847;SDS011;22332;51.954;20.118;2023-05-20T00:27:08;14.60;;;10.80;;
35847;SDS011;22332;51.954;20.118;2023-05-20T00:30:14;14.20;;;10.80;;
35847;SDS011;22332;51.954;20.118;2023-05-20T00:33:20;14.20;;;10.60;;
35847;SDS011;22332;51.954;20.118;2023-05-20T00:36:25;16.60;;;11.10;;
35847;SDS011;22332;51.954;20.118;2023-05-20T00:39:31;14.70;;;12.00;;
35847;SDS011;22332;51.954;20.118;2023-05-20T00:42:36;13.70;;;10.00;;
35847;SDS011;22332;51.954;20.118;2023-05-20T00:45:42;12.30;;;9.80;;
35847;SDS011;22332;51.954;20.118;2023-05-20T00:48:48;17.60;;;11.50;;
35847;SDS011;22332;51.954;20.118;2023-05-20T00:51:54;14.80;;;10.80;;
35847;SDS011;22332;51.954;20.118;2023-05-20T00:55:00;13.20;;;10.90;;
35847;SDS011;22332;51.954;20.118;2023-05-20T00:58:06;15.50;;;11.70;;
35847;SDS011;22332;51.954;20.118;2023-05-20T01:01:12;13.90;;;10.10;;
35847;SDS011;22332;51.954;20.118;2023-05-20T01:04:18;12.90;;;9.80;;
35847;SDS011;22332;51.954;20.118;2023-05-20T01:07:24;13.10;;;9.70;;
35847;SDS011;22332;51.954;20.118;2023-05-20T01:10:29;14.30;;;10.50;;
35847;SDS011;22332;51.954;20.118;2023-05-20T01:13:38;14.60;;;10.20;;
35847;SDS011;22332;51.954;20.118;2023-05-20T01:16:48;14.00;;;10.50;;
35847;SDS011;22332;51.954;20.118;2023-05-20T01:19:56;13.00;;;9.30;;
35847;SDS011;22332;51.954;20.118;2023-05-20T01:23:03;12.20;;;8.90;;
35847;SDS011;22332;51.954;20.118;2023-05-20T01:26:09;14.50;;;10.90;;
35847;SDS011;22332;51.954;20.118;2023-05-20T01:29:15;17.30;;;11.30;;
35847;SDS011;22332;51.954;20.118;2023-05-20T01:32:22;13.60;;;11.40;;
35847;SDS011;22332;51.954;20.118;2023-05-20T01:35:33;13.80;;;10.90;;
35847;SDS011;22332;51.954;20.118;2023-05-20T01:38:39;15.80;;;11.50;;
35847;SDS011;22332;51.954;20.118;2023-05-20T01:41:45;14.10;;;10.10;;
35847;SDS011;22332;51.954;20.118;2023-05-20T01:44:52;12.60;;;9.70;;
35847;SDS011;22332;51.954;20.118;2023-05-20T01:47:58;14.10;;;10.20;;
35847;SDS011;22332;51.954;20.118;2023-05-20T01:51:04;13.70;;;11.10;;
35847;SDS011;22332;51.954;20.118;2023-05-20T01:54:09;16.50;;;13.10;;
35847;SDS011;22332;51.954;20.118;2023-05-20T01:57:15;13.40;;;10.60;;
35847;SDS011;22332;51.954;20.118;2023-05-20T02:00:21;12.40;;;9.80;;
35847;SDS011;22332;51.954;20.118;2023-05-20T02:03:27;14.20;;;9.70;;
35847;SDS011;22332;51.954;20.118;2023-05-20T02:06:32;15.20;;;9.90;;
35847;SDS011;22332;51.954;20.118;2023-05-20T02:09:38;13.00;;;10.20;;
35847;SDS011;22332;51.954;20.118;2023-05-20T02:12:43;13.80;;;11.10;;
35847;SDS011;22332;51.954;20.118;2023-05-20T02:15:51;12.70;;;9.00;;
35847;SDS011;22332;51.954;20.118;2023-05-20T02:18:57;11.50;;;8.50;;
35847;SDS011;22332;51.954;20.118;2023-05-20T02:22:05;14.20;;;9.70;;
35847;SDS011;22332;51.954;20.118;2023-05-20T02:25:11;14.10;;;10.60;;
35847;SDS011;22332;51.954;20.118;2023-05-20T02:28:16;14.80;;;11.00;;
35847;SDS011;22332;51.954;20.118;2023-05-20T02:31:22;18.80;;;11.30;;
35847;SDS011;22332;51.954;20.118;2023-05-20T02:34:27;13.50;;;9.50;;
35847;SDS011;22332;51.954;20.118;2023-05-20T02:37:34;14.30;;;9.30;;
35847;SDS011;22332;51.954;20.118;2023-05-20T02:40:42;13.80;;;9.80;;
35847;SDS011;22332;51.954;20.118;2023-05-20T02:43:48;11.90;;;9.40;;
35847;SDS011;22332;51.954;20.118;2023-05-20T02:46:53;12.10;;;9.90;;
35847;SDS011;22332;51.954;20.118;2023-05-20T02:49:59;11.80;;;9.30;;
35847;SDS011;22332;51.954;20.118;2023-05-20T02:53:05;12.60;;;8.60;;
35847;SDS011;22332;51.954;20.118;2023-05-20T02:56:11;9.80;;;8.30;;
35847;SDS011;22332;51.954;20.118;2023-05-20T02:59:16;12.80;;;9.30;;
35847;SDS011;22332;51.954;20.118;2023-05-20T03:02:22;12.40;;;9.30;;
35847;SDS011;22332;51.954;20.118;2023-05-20T03:05:27;12.70;;;10.20;;
35847;SDS011;22332;51.954;20.118;2023-05-20T03:08:34;13.30;;;10.00;;
35847;SDS011;22332;51.954;20.118;2023-05-20T03:11:41;15.40;;;10.90;;
35847;SDS011;22332;51.954;20.118;2023-05-20T03:14:46;13.00;;;9.40;;
35847;SDS011;22332;51.954;20.118;2023-05-20T03:17:56;13.50;;;10.10;;
35847;SDS011;22332;51.954;20.118;2023-05-20T03:21:02;16.30;;;10.20;;
35847;SDS011;22332;51.954;20.118;2023-05-20T03:24:08;14.30;;;10.60;;
35847;SDS011;22332;51.954;20.118;2023-05-20T03:27:13;14.40;;;11.10;;
35847;SDS011;22332;51.954;20.118;2023-05-20T03:30:19;16.50;;;11.40;;
35847;SDS011;22332;51.954;20.118;2023-05-20T03:33:25;18.40;;;12.20;;
35847;SDS011;22332;51.954;20.118;2023-05-20T03:36:31;16.00;;;11.00;;
35847;SDS011;22332;51.954;20.118;2023-05-20T03:39:36;14.90;;;11.40;;
35847;SDS011;22332;51.954;20.118;2023-05-20T03:42:42;16.30;;;11.10;;
35847;SDS011;22332;51.954;20.118;2023-05-20T03:45:49;18.70;;;13.10;;
35847;SDS011;22332;51.954;20.118;2023-05-20T03:48:55;16.20;;;11.60;;
35847;SDS011;22332;51.954;20.118;2023-05-20T03:52:00;15.80;;;10.90;;
35847;SDS011;22332;51.954;20.118;2023-05-20T03:55:06;14.80;;;10.90;;
35847;SDS011;22332;51.954;20.118;2023-05-20T03:58:13;15.30;;;11.10;;
35847;SDS011;22332;51.954;20.118;2023-05-20T04:01:19;15.20;;;11.30;;
35847;SDS011;22332;51.954;20.118;2023-05-20T04:04:27;18.30;;;12.40;;
35847;SDS011;22332;51.954;20.118;2023-05-20T04:07:34;13.40;;;9.40;;
35847;SDS011;22332;51.954;20.118;2023-05-20T04:10:40;17.50;;;11.50;;
35847;SDS011;22332;51.954;20.118;2023-05-20T04:13:47;15.70;;;11.40;;
35847;SDS011;22332;51.954;20.118;2023-05-20T04:16:53;17.30;;;12.50;;
35847;SDS011;22332;51.954;20.118;2023-05-20T04:19:59;15.70;;;11.70;;
35847;SDS011;22332;51.954;20.118;2023-05-20T04:23:07;15.40;;;12.30;;
35847;SDS011;22332;51.954;20.118;2023-05-20T04:26:13;15.70;;;11.80;;
35847;SDS011;22332;51.954;20.118;2023-05-20T04:29:18;15.10;;;10.90;;
35847;SDS011;22332;51.954;20.118;2023-05-20T04:32:25;16.60;;;10.60;;
35847;SDS011;22332;51.954;20.118;2023-05-20T04:35:30;14.50;;;10.70;;
35847;SDS011;22332;51.954;20.118;2023-05-20T04:38:39;15.80;;;11.00;;
35847;SDS011;22332;51.954;20.118;2023-05-20T04:41:47;11.10;;;9.80;;
35847;SDS011;22332;51.954;20.118;2023-05-20T04:44:56;14.50;;;10.10;;
35847;SDS011;22332;51.954;20.118;2023-05-20T04:48:04;14.60;;;10.00;;
35847;SDS011;22332;51.954;20.118;2023-05-20T04:51:12;13.20;;;9.80;;
35847;SDS011;22332;51.954;20.118;2023-05-20T04:54:17;15.60;;;9.70;;
35847;SDS011;22332;51.954;20.118;2023-05-20T04:57:23;11.90;;;9.80;;
35847;SDS011;22332;51.954;20.118;2023-05-20T05:00:29;15.00;;;9.60;;
35847;SDS011;22332;51.954;20.118;2023-05-20T05:03:35;15.60;;;9.60;;
35847;SDS011;22332;51.954;20.118;2023-05-20T05:06:40;12.20;;;9.30;;
35847;SDS011;22332;51.954;20.118;2023-05-20T05:09:46;11.00;;;7.70;;
35847;SDS011;22332;51.954;20.118;2023-05-20T05:12:52;12.90;;;9.30;;
35847;SDS011;22332;51.954;20.118;2023-05-20T05:15:58;14.60;;;10.30;;
35847;SDS011;22332;51.954;20.118;2023-05-20T05:19:05;13.80;;;10.10;;
35847;SDS011;22332;51.954;20.118;2023-05-20T05:22:13;12.90;;;8.70;;
35847;SDS011;22332;51.954;20.118;2023-05-20T05:25:18;12.50;;;8.50;;
35847;SDS011;22332;51.954;20.118;2023-05-20T05:28:24;13.10;;;8.70;;
35847;SDS011;22332;51.954;20.118;2023-05-20T05:31:30;11.20;;;7.70;;
35847;SDS011;22332;51.954;20.118;2023-05-20T05:34:35;9.80;;;8.10;;
35847;SDS011;22332;51.954;20.118;2023-05-20T05:37:41;10.60;;;8.10;;
35847;SDS011;22332;51.954;20.118;2023-05-20T05:40:47;12.70;;;8.60;;
35847;SDS011;22332;51.954;20.118;2023-05-20T05:43:53;12.40;;;8.60;;
35847;SDS011;22332;51.954;20.118;2023-05-20T05:46:59;10.80;;;7.80;;
35847;SDS011;22332;51.954;20.118;2023-05-20T05:50:05;11.00;;;7.80;;
35847;SDS011;22332;51.954;20.118;2023-05-20T05:53:12;10.10;;;7.90;;
35847;SDS011;22332;51.954;20.118;2023-05-20T05:56:22;10.20;;;7.30;;
35847;SDS011;22332;51.954;20.118;2023-05-20T05:59:27;11.00;;;7.80;;
35847;SDS011;22332;51.954;20.118;2023-05-20T06:02:33;10.00;;;8.10;;
35847;SDS011;22332;51.954;20.118;2023-05-20T06:05:39;10.40;;;7.80;;
35847;SDS011;22332;51.954;20.118;2023-05-20T06:08:48;12.40;;;8.40;;
35847;SDS011;22332;51.954;20.118;2023-05-20T06:11:54;9.80;;;7.00;;
35847;SDS011;22332;51.954;20.118;2023-05-20T06:15:00;9.60;;;7.00;;
35847;SDS011;22332;51.954;20.118;2023-05-20T06:18:06;9.00;;;6.60;;
35847;SDS011;22332;51.954;20.118;2023-05-20T06:21:13;9.50;;;7.00;;
35847;SDS011;22332;51.954;20.118;2023-05-20T06:24:19;8.90;;;7.00;;
35847;SDS011;22332;51.954;20.118;2023-05-20T06:27:25;11.40;;;7.70;;
35847;SDS011;22332;51.954;20.118;2023-05-20T06:30:30;9.90;;;7.30;;
35847;SDS011;22332;51.954;20.118;2023-05-20T06:33:36;22.60;;;17.80;;
35847;SDS011;22332;51.954;20.118;2023-05-20T06:36:46;11.50;;;8.60;;
35847;SDS011;22332;51.954;20.118;2023-05-20T06:39:51;12.20;;;7.70;;
35847;SDS011;22332;51.954;20.118;2023-05-20T06:42:58;9.90;;;7.00;;
35847;SDS011;22332;51.954;20.118;2023-05-20T06:46:23;9.10;;;6.50;;
35847;SDS011;22332;51.954;20.118;2023-05-20T06:49:38;6.90;;;6.10;;
35847;SDS011;22332;51.954;20.118;2023-05-20T06:52:43;7.40;;;5.90;;
35847;SDS011;22332;51.954;20.118;2023-05-20T06:55:49;9.70;;;6.80;;
35847;SDS011;22332;51.954;20.118;2023-05-20T06:58:57;8.80;;;6.70;;
35847;SDS011;22332;51.954;20.118;2023-05-20T07:02:03;7.30;;;5.60;;
35847;SDS011;22332;51.954;20.118;2023-05-20T07:05:10;8.00;;;6.00;;
35847;SDS011;22332;51.954;20.118;2023-05-20T07:08:16;8.30;;;6.20;;
35847;SDS011;22332;51.954;20.118;2023-05-20T07:11:22;10.10;;;6.10;;
35847;SDS011;22332;51.954;20.118;2023-05-20T07:14:27;9.50;;;6.50;;
35847;SDS011;22332;51.954;20.118;2023-05-20T07:17:33;10.50;;;6.60;;
35847;SDS011;22332;51.954;20.118;2023-05-20T07:20:40;9.00;;;6.70;;
35847;SDS011;22332;51.954;20.118;2023-05-20T07:24:03;7.90;;;6.40;;
35847;SDS011;22332;51.954;20.118;2023-05-20T07:27:09;8.30;;;6.30;;
35847;SDS011;22332;51.954;20.118;2023-05-20T07:30:15;9.70;;;6.70;;
35847;SDS011;22332;51.954;20.118;2023-05-20T07:33:28;7.20;;;5.10;;
35847;SDS011;22332;51.954;20.118;2023-05-20T07:36:35;9.20;;;5.50;;
35847;SDS011;22332;51.954;20.118;2023-05-20T07:39:44;7.00;;;5.40;;
35847;SDS011;22332;51.954;20.118;2023-05-20T07:42:49;8.50;;;5.50;;
35847;SDS011;22332;51.954;20.118;2023-05-20T07:45:56;6.90;;;5.20;;
35847;SDS011;22332;51.954;20.118;2023-05-20T07:49:01;6.60;;;4.80;;
35847;SDS011;22332;51.954;20.118;2023-05-20T07:52:07;7.10;;;4.90;;
35847;SDS011;22332;51.954;20.118;2023-05-20T07:55:13;7.50;;;5.40;;
35847;SDS011;22332;51.954;20.118;2023-05-20T07:58:20;8.10;;;5.20;;
35847;SDS011;22332;51.954;20.118;2023-05-20T08:01:26;7.00;;;5.50;;
35847;SDS011;22332;51.954;20.118;2023-05-20T08:04:34;6.80;;;5.00;;
35847;SDS011;22332;51.954;20.118;2023-05-20T08:07:40;6.60;;;5.00;;
35847;SDS011;22332;51.954;20.118;2023-05-20T08:10:46;7.50;;;4.90;;
35847;SDS011;22332;51.954;20.118;2023-05-20T08:13:53;6.20;;;5.20;;
35847;SDS011;22332;51.954;20.118;2023-05-20T08:17:00;7.80;;;5.40;;
35847;SDS011;22332;51.954;20.118;2023-05-20T08:20:07;8.10;;;5.10;;
35847;SDS011;22332;51.954;20.118;2023-05-20T08:23:14;7.40;;;5.50;;
35847;SDS011;22332;51.954;20.118;2023-05-20T08:26:20;8.20;;;5.90;;
35847;SDS011;22332;51.954;20.118;2023-05-20T08:29:26;7.80;;;5.50;;
35847;SDS011;22332;51.954;20.118;2023-05-20T08:32:34;7.30;;;5.80;;
35847;SDS011;22332;51.954;20.118;2023-05-20T08:35:39;8.90;;;5.40;;
35847;SDS011;22332;51.954;20.118;2023-05-20T08:38:45;7.90;;;5.60;;
35847;SDS011;22332;51.954;20.118;2023-05-20T08:41:50;8.40;;;5.10;;
35847;SDS011;22332;51.954;20.118;2023-05-20T08:44:56;8.20;;;5.90;;
35847;SDS011;22332;51.954;20.118;2023-05-20T08:48:06;6.70;;;5.80;;
35847;SDS011;22332;51.954;20.118;2023-05-20T08:51:12;7.30;;;6.30;;
35847;SDS011;22332;51.954;20.118;2023-05-20T08:54:21;8.40;;;6.70;;
35847;SDS011;22332;51.954;20.118;2023-05-20T08:57:28;8.80;;;7.20;;
35847;SDS011;22332;51.954;20.118;2023-05-20T09:00:35;11.00;;;7.60;;
35847;SDS011;22332;51.954;20.118;2023-05-20T09:03:41;9.30;;;7.80;;
35847;SDS011;22332;51.954;20.118;2023-05-20T09:06:46;8.50;;;7.40;;
35847;SDS011;22332;51.954;20.118;2023-05-20T09:09:54;8.90;;;7.00;;
35847;SDS011;22332;51.954;20.118;2023-05-20T09:13:00;9.00;;;6.80;;
35847;SDS011;22332;51.954;20.118;2023-05-20T09:16:08;7.40;;;6.30;;
35847;SDS011;22332;51.954;20.118;2023-05-20T09:19:14;8.20;;;6.20;;
35847;SDS011;22332;51.954;20.118;2023-05-20T09:22:22;9.00;;;5.80;;
35847;SDS011;22332;51.954;20.118;2023-05-20T09:25:28;7.30;;;6.40;;
35847;SDS011;22332;51.954;20.118;2023-05-20T09:28:34;7.50;;;5.80;;
35847;SDS011;22332;51.954;20.118;2023-05-20T09:31:41;9.70;;;6.20;;
35847;SDS011;22332;51.954;20.118;2023-05-20T09:34:46;7.00;;;6.30;;
35847;SDS011;22332;51.954;20.118;2023-05-20T09:37:53;8.50;;;6.20;;
35847;SDS011;22332;51.954;20.118;2023-05-20T09:40:59;8.00;;;6.30;;
35847;SDS011;22332;51.954;20.118;2023-05-20T09:44:06;8.00;;;6.00;;
35847;SDS011;22332;51.954;20.118;2023-05-20T09:47:13;9.30;;;6.00;;
35847;SDS011;22332;51.954;20.118;2023-05-20T09:50:19;7.60;;;6.40;;
35847;SDS011;22332;51.954;20.118;2023-05-20T09:53:26;9.50;;;7.70;;
35847;SDS011;22332;51.954;20.118;2023-05-20T09:56:32;9.00;;;8.10;;
35847;SDS011;22332;51.954;20.118;2023-05-20T09:59:39;14.50;;;7.30;;
35847;SDS011;22332;51.954;20.118;2023-05-20T10:02:46;9.80;;;7.30;;
35847;SDS011;22332;51.954;20.118;2023-05-20T10:05:57;8.00;;;6.60;;
35847;SDS011;22332;51.954;20.118;2023-05-20T10:09:21;9.60;;;6.40;;
35847;SDS011;22332;51.954;20.118;2023-05-20T10:12:38;7.90;;;6.50;;
35847;SDS011;22332;51.954;20.118;2023-05-20T10:15:58;7.70;;;6.90;;
35847;SDS011;22332;51.954;20.118;2023-05-20T10:19:09;8.30;;;7.50;;
35847;SDS011;22332;51.954;20.118;2023-05-20T10:22:26;9.10;;;6.80;;
35847;SDS011;22332;51.954;20.118;2023-05-20T10:25:33;8.00;;;7.20;;
35847;SDS011;22332;51.954;20.118;2023-05-20T10:28:39;11.70;;;7.00;;
35847;SDS011;22332;51.954;20.118;2023-05-20T10:31:47;8.00;;;6.90;;
35847;SDS011;22332;51.954;20.118;2023-05-20T10:34:57;8.40;;;7.10;;
35847;SDS011;22332;51.954;20.118;2023-05-20T10:38:07;7.90;;;6.70;;
35847;SDS011;22332;51.954;20.118;2023-05-20T10:41:14;16.70;;;8.60;;
35847;SDS011;22332;51.954;20.118;2023-05-20T10:44:26;9.60;;;7.90;;
35847;SDS011;22332;51.954;20.118;2023-05-20T10:47:52;8.80;;;7.50;;
35847;SDS011;22332;51.954;20.118;2023-05-20T10:50:59;8.30;;;7.50;;
35847;SDS011;22332;51.954;20.118;2023-05-20T10:54:08;11.30;;;7.70;;
35847;SDS011;22332;51.954;20.118;2023-05-20T10:57:13;8.20;;;6.90;;
35847;SDS011;22332;51.954;20.118;2023-05-20T11:00:19;8.00;;;6.70;;
35847;SDS011;22332;51.954;20.118;2023-05-20T11:03:26;9.00;;;6.90;;
35847;SDS011;22332;51.954;20.118;2023-05-20T11:06:32;9.80;;;7.70;;
35847;SDS011;22332;51.954;20.118;2023-05-20T11:09:37;7.80;;;6.80;;
35847;SDS011;22332;51.954;20.118;2023-05-20T11:12:52;11.70;;;6.80;;
35847;SDS011;22332;51.954;20.118;2023-05-20T11:15:59;9.10;;;6.80;;
35847;SDS011;22332;51.954;20.118;2023-05-20T11:19:07;9.30;;;7.20;;
35847;SDS011;22332;51.954;20.118;2023-05-20T11:22:17;9.80;;;6.80;;
35847;SDS011;22332;51.954;20.118;2023-05-20T11:25:23;8.00;;;6.30;;
35847;SDS011;22332;51.954;20.118;2023-05-20T11:28:30;7.40;;;6.50;;
35847;SDS011;22332;51.954;20.118;2023-05-20T11:31:37;8.40;;;7.00;;
35847;SDS011;22332;51.954;20.118;2023-05-20T11:34:43;8.90;;;6.20;;
35847;SDS011;22332;51.954;20.118;2023-05-20T11:37:54;10.20;;;7.60;;
35847;SDS011;22332;51.954;20.118;2023-05-20T11:41:01;9.50;;;7.60;;
35847;SDS011;22332;51.954;20.118;2023-05-20T11:44:08;10.20;;;8.10;;
35847;SDS011;22332;51.954;20.118;2023-05-20T11:47:15;10.30;;;8.10;;
35847;SDS011;22332;51.954;20.118;2023-05-20T11:50:32;8.80;;;8.00;;
35847;SDS011;22332;51.954;20.118;2023-05-20T11:53:41;9.10;;;7.10;;
35847;SDS011;22332;51.954;20.118;2023-05-20T11:56:50;9.90;;;9.00;;
35847;SDS011;22332;51.954;20.118;2023-05-20T11:59:58;12.70;;;8.90;;
35847;SDS011;22332;51.954;20.118;2023-05-20T12:03:04;10.20;;;9.20;;
35847;SDS011;22332;51.954;20.118;2023-05-20T12:06:11;10.20;;;8.70;;
35847;SDS011;22332;51.954;20.118;2023-05-20T12:09:17;11.10;;;9.20;;
35847;SDS011;22332;51.954;20.118;2023-05-20T12:12:22;11.30;;;8.90;;
35847;SDS011;22332;51.954;20.118;2023-05-20T12:15:28;9.70;;;8.70;;
35847;SDS011;22332;51.954;20.118;2023-05-20T12:18:34;9.70;;;8.00;;
35847;SDS011;22332;51.954;20.118;2023-05-20T12:21:39;11.00;;;8.60;;
35847;SDS011;22332;51.954;20.118;2023-05-20T12:24:44;9.30;;;8.40;;
35847;SDS011;22332;51.954;20.118;2023-05-20T12:27:50;10.30;;;8.80;;
35847;SDS011;22332;51.954;20.118;2023-05-20T12:30:56;9.50;;;8.60;;
35847;SDS011;22332;51.954;20.118;2023-05-20T12:34:01;9.10;;;8.20;;
35847;SDS011;22332;51.954;20.118;2023-05-20T12:37:07;9.50;;;8.20;;
35847;SDS011;22332;51.954;20.118;2023-05-20T12:40:12;9.20;;;7.90;;
35847;SDS011;22332;51.954;20.118;2023-05-20T12:43:18;8.60;;;7.70;;
35847;SDS011;22332;51.954;20.118;2023-05-20T12:46:24;9.20;;;8.30;;
35847;SDS011;22332;51.954;20.118;2023-05-20T12:49:29;9.20;;;8.30;;
35847;SDS011;22332;51.954;20.118;2023-05-20T12:52:35;9.70;;;8.50;;
35847;SDS011;22332;51.954;20.118;2023-05-20T12:55:40;8.80;;;7.90;;
35847;SDS011;22332;51.954;20.118;2023-05-20T12:58:46;8.40;;;7.60;;
35847;SDS011;22332;51.954;20.118;2023-05-20T13:01:51;8.60;;;7.70;;
35847;SDS011;22332;51.954;20.118;2023-05-20T13:04:57;8.20;;;7.50;;
35847;SDS011;22332;51.954;20.118;2023-05-20T13:08:02;8.20;;;7.00;;
35847;SDS011;22332;51.954;20.118;2023-05-20T13:11:10;8.50;;;7.70;;
35847;SDS011;22332;51.954;20.118;2023-05-20T13:14:16;8.30;;;7.50;;
35847;SDS011;22332;51.954;20.118;2023-05-20T13:17:21;9.70;;;7.30;;
35847;SDS011;22332;51.954;20.118;2023-05-20T13:20:27;7.80;;;7.00;;
35847;SDS011;22332;51.954;20.118;2023-05-20T13:23:32;8.10;;;7.30;;
35847;SDS011;22332;51.954;20.118;2023-05-20T13:26:38;8.60;;;7.30;;
35847;SDS011;22332;51.954;20.118;2023-05-20T13:29:44;8.50;;;7.70;;
35847;SDS011;22332;51.954;20.118;2023-05-20T13:32:50;9.90;;;7.80;;
35847;SDS011;22332;51.954;20.118;2023-05-20T13:35:55;8.50;;;7.40;;
35847;SDS011;22332;51.954;20.118;2023-05-20T13:39:01;8.10;;;7.40;;
35847;SDS011;22332;51.954;20.118;2023-05-20T13:42:06;8.60;;;7.80;;
35847;SDS011;22332;51.954;20.118;2023-05-20T13:45:12;8.90;;;8.00;;
35847;SDS011;22332;51.954;20.118;2023-05-20T13:48:18;8.10;;;7.40;;
35847;SDS011;22332;51.954;20.118;2023-05-20T13:51:23;9.80;;;7.80;;
35847;SDS011;22332;51.954;20.118;2023-05-20T13:54:29;8.30;;;7.60;;
35847;SDS011;22332;51.954;20.118;2023-05-20T13:57:34;8.00;;;7.30;;
35847;SDS011;22332;51.954;20.118;2023-05-20T14:00:40;8.20;;;7.50;;
35847;SDS011;22332;51.954;20.118;2023-05-20T14:03:45;7.60;;;7.00;;
35847;SDS011;22332;51.954;20.118;2023-05-20T14:06:51;8.20;;;7.30;;
35847;SDS011;22332;51.954;20.118;2023-05-20T14:09:56;7.50;;;6.80;;
35847;SDS011;22332;51.954;20.118;2023-05-20T14:13:02;7.70;;;7.00;;
35847;SDS011;22332;51.954;20.118;2023-05-20T14:16:08;9.50;;;8.50;;
35847;SDS011;22332;51.954;20.118;2023-05-20T14:19:13;8.50;;;7.70;;
35847;SDS011;22332;51.954;20.118;2023-05-20T14:22:19;9.20;;;6.90;;
35847;SDS011;22332;51.954;20.118;2023-05-20T14:25:24;8.90;;;7.50;;
35847;SDS011;22332;51.954;20.118;2023-05-20T14:28:30;8.00;;;7.10;;
35847;SDS011;22332;51.954;20.118;2023-05-20T14:31:36;9.10;;;7.40;;
35847;SDS011;22332;51.954;20.118;2023-05-20T14:34:42;8.10;;;7.30;;
35847;SDS011;22332;51.954;20.118;2023-05-20T14:37:47;7.70;;;7.00;;
35847;SDS011;22332;51.954;20.118;2023-05-20T14:40:53;7.90;;;7.10;;
35847;SDS011;22332;51.954;20.118;2023-05-20T14:43:58;9.70;;;7.10;;
35847;SDS011;22332;51.954;20.118;2023-05-20T14:47:04;8.80;;;7.20;;
35847;SDS011;22332;51.954;20.118;2023-05-20T14:50:09;8.50;;;7.70;;
35847;SDS011;22332;51.954;20.118;2023-05-20T14:53:15;8.40;;;7.60;;
35847;SDS011;22332;51.954;20.118;2023-05-20T14:56:21;9.30;;;7.30;;
35847;SDS011;22332;51.954;20.118;2023-05-20T14:59:26;8.00;;;7.30;;
35847;SDS011;22332;51.954;20.118;2023-05-20T15:02:32;7.70;;;6.90;;
35847;SDS011;22332;51.954;20.118;2023-05-20T15:05:37;9.00;;;7.70;;
35847;SDS011;22332;51.954;20.118;2023-05-20T15:08:43;8.50;;;7.60;;
35847;SDS011;22332;51.954;20.118;2023-05-20T15:11:49;9.20;;;7.50;;
35847;SDS011;22332;51.954;20.118;2023-05-20T15:14:54;8.50;;;7.60;;
35847;SDS011;22332;51.954;20.118;2023-05-20T15:18:00;8.60;;;7.80;;
35847;SDS011;22332;51.954;20.118;2023-05-20T15:21:05;9.20;;;8.30;;
35847;SDS011;22332;51.954;20.118;2023-05-20T15:24:11;8.60;;;7.80;;
35847;SDS011;22332;51.954;20.118;2023-05-20T15:27:16;8.70;;;7.80;;
35847;SDS011;22332;51.954;20.118;2023-05-20T15:30:22;9.00;;;7.90;;
35847;SDS011;22332;51.954;20.118;2023-05-20T15:33:28;8.50;;;7.50;;
35847;SDS011;22332;51.954;20.118;2023-05-20T15:36:34;8.80;;;7.90;;
35847;SDS011;22332;51.954;20.118;2023-05-20T15:39:39;9.40;;;7.90;;
35847;SDS011;22332;51.954;20.118;2023-05-20T15:42:46;8.70;;;7.90;;
35847;SDS011;22332;51.954;20.118;2023-05-20T15:45:55;9.70;;;8.30;;
35847;SDS011;22332;51.954;20.118;2023-05-20T15:49:01;10.60;;;8.30;;
35847;SDS011;22332;51.954;20.118;2023-05-20T15:52:07;10.00;;;8.80;;
35847;SDS011;22332;51.954;20.118;2023-05-20T15:55:12;9.60;;;8.70;;
35847;SDS011;22332;51.954;20.118;2023-05-20T15:58:18;11.60;;;9.90;;
35847;SDS011;22332;51.954;20.118;2023-05-20T16:01:24;12.40;;;10.60;;
35847;SDS011;22332;51.954;20.118;2023-05-20T16:04:30;12.00;;;10.30;;
35847;SDS011;22332;51.954;20.118;2023-05-20T16:07:35;11.70;;;9.60;;
35847;SDS011;22332;51.954;20.118;2023-05-20T16:10:41;12.20;;;9.40;;
35847;SDS011;22332;51.954;20.118;2023-05-20T16:13:47;10.70;;;9.00;;
35847;SDS011;22332;51.954;20.118;2023-05-20T16:16:52;12.20;;;10.40;;
35847;SDS011;22332;51.954;20.118;2023-05-20T16:19:58;11.50;;;9.00;;
35847;SDS011;22332;51.954;20.118;2023-05-20T16:23:03;12.60;;;8.90;;
35847;SDS011;22332;51.954;20.118;2023-05-20T16:26:10;11.30;;;10.10;;
35847;SDS011;22332;51.954;20.118;2023-05-20T16:29:16;12.00;;;10.80;;
35847;SDS011;22332;51.954;20.118;2023-05-20T16:32:21;12.50;;;10.50;;
35847;SDS011;22332;51.954;20.118;2023-05-20T16:35:30;12.00;;;10.80;;
35847;SDS011;22332;51.954;20.118;2023-05-20T16:38:36;12.00;;;10.70;;
35847;SDS011;22332;51.954;20.118;2023-05-20T16:41:42;12.80;;;11.60;;
35847;SDS011;22332;51.954;20.118;2023-05-20T16:44:48;12.90;;;10.80;;
35847;SDS011;22332;51.954;20.118;2023-05-20T16:47:55;14.90;;;10.40;;
35847;SDS011;22332;51.954;20.118;2023-05-20T16:51:00;12.30;;;10.70;;
35847;SDS011;22332;51.954;20.118;2023-05-20T16:54:06;13.40;;;10.10;;
35847;SDS011;22332;51.954;20.118;2023-05-20T16:57:11;11.40;;;10.20;;
35847;SDS011;22332;51.954;20.118;2023-05-20T17:00:18;12.50;;;11.00;;
35847;SDS011;22332;51.954;20.118;2023-05-20T17:03:23;11.00;;;9.90;;
35847;SDS011;22332;51.954;20.118;2023-05-20T17:06:29;11.20;;;9.80;;
35847;SDS011;22332;51.954;20.118;2023-05-20T17:09:35;10.90;;;9.70;;
35847;SDS011;22332;51.954;20.118;2023-05-20T17:12:41;11.40;;;10.30;;
35847;SDS011;22332;51.954;20.118;2023-05-20T17:15:46;12.50;;;11.20;;
35847;SDS011;22332;51.954;20.118;2023-05-20T17:18:52;13.10;;;11.80;;
35847;SDS011;22332;51.954;20.118;2023-05-20T17:21:57;12.70;;;10.70;;
35847;SDS011;22332;51.954;20.118;2023-05-20T17:25:03;12.40;;;11.10;;
35847;SDS011;22332;51.954;20.118;2023-05-20T17:28:09;11.00;;;9.90;;
35847;SDS011;22332;51.954;20.118;2023-05-20T17:31:15;13.30;;;10.60;;
35847;SDS011;22332;51.954;20.118;2023-05-20T17:34:20;13.10;;;11.70;;
35847;SDS011;22332;51.954;20.118;2023-05-20T17:37:26;14.70;;;12.10;;
35847;SDS011;22332;51.954;20.118;2023-05-20T17:40:31;14.60;;;12.00;;
35847;SDS011;22332;51.954;20.118;2023-05-20T17:43:37;13.50;;;11.80;;
35847;SDS011;22332;51.954;20.118;2023-05-20T17:46:42;15.30;;;12.80;;
35847;SDS011;22332;51.954;20.118;2023-05-20T17:49:48;13.90;;;12.40;;
35847;SDS011;22332;51.954;20.118;2023-05-20T17:52:54;15.00;;;12.70;;
35847;SDS011;22332;51.954;20.118;2023-05-20T17:55:59;15.50;;;13.40;;
35847;SDS011;22332;51.954;20.118;2023-05-20T17:59:05;17.40;;;14.70;;
35847;SDS011;22332;51.954;20.118;2023-05-20T18:02:10;15.90;;;13.90;;
35847;SDS011;22332;51.954;20.118;2023-05-20T18:05:16;18.00;;;14.30;;
35847;SDS011;22332;51.954;20.118;2023-05-20T18:08:21;21.60;;;16.40;;
35847;SDS011;22332;51.954;20.118;2023-05-20T18:11:27;16.80;;;15.10;;
35847;SDS011;22332;51.954;20.118;2023-05-20T18:14:34;15.80;;;13.90;;